WetterOnline ( https://www.wetteronline.de )

Wetter aktuell Poprad

Aktuelles Wetter: Poprad (696m)

6-stündlich | Neueste Meldungen
Ortszeit Temperatur Wetter
Mo, 17.06. 8:00 14.7° C fast wolkenlos
Mo, 17.06. 2:00 12.9° C leicht bewölkt
So, 16.06. 20:00 15.2° C bewölkt
So, 16.06. 14:00 17.0° C bewölkt
So, 16.06. 8:00 16.1° C wolkig
So, 16.06. 2:00 10.9° C wolkig
Sa, 15.06. 20:00 17.1° C fast wolkenlos
Sa, 15.06. 14:00 21.9° C leicht bewölkt
Ortszeit Temperatur Wetter
Mo, 17.06. 10:00 17.8° C fast wolkenlos
Mo, 17.06. 9:00 16.3° C fast wolkenlos
Mo, 17.06. 8:00 14.7° C fast wolkenlos
Mo, 17.06. 7:00 12.8° C Nebelschwaden
Mo, 17.06. 6:00 11.4° C Nebelschwaden
Mo, 17.06. 5:00 11.1° C bewölkt
Mo, 17.06. 4:00 11.1° C leicht bewölkt
Ortszeit Relative Feuchte Sichtweite
Mo, 17.06. 8:00 77% 40 km
Mo, 17.06. 2:00 93% 40 km
So, 16.06. 20:00 94% 30 km
So, 16.06. 14:00 82% 40 km
So, 16.06. 8:00 83% 20 km
So, 16.06. 2:00 92% 50 km
Sa, 15.06. 20:00 71% 50 km
Sa, 15.06. 14:00 45% 55 km
Ortszeit Relative Feuchte Sichtweite
Mo, 17.06. 10:00 64% 40 km
Mo, 17.06. 9:00 71% 40 km
Mo, 17.06. 8:00 77% 40 km
Mo, 17.06. 7:00 87% 2.5 km
Mo, 17.06. 6:00 95% 2.5 km
Mo, 17.06. 5:00 96% 40 km
Mo, 17.06. 4:00 96% 40 km
Ortszeit Niederschlagsmenge Niederschlagsart
Mo, 17.06. 8:00 0.0 l/m2 in 12 Std. -
Mo, 17.06. 2:00 0.0 l/m2 in 6 Std. -
So, 16.06. 20:00 3 l/m2 in 12 Std. Schauer
So, 16.06. 14:00 2 l/m2 in 6 Std. Regen
So, 16.06. 8:00 0.0 l/m2 in 12 Std. -
So, 16.06. 2:00 0.0 l/m2 in 6 Std. -
Sa, 15.06. 20:00 0.0 l/m2 in 12 Std. -
Sa, 15.06. 14:00 0.0 l/m2 in 6 Std. -
Ortszeit Niederschlagsmenge Niederschlagsart
Mo, 17.06. 10:00 0.0 l/m2 in 1 Std. -
Mo, 17.06. 9:00 0.0 l/m2 in 1 Std. -
Mo, 17.06. 8:00 0.0 l/m2 in 1 Std. -
Mo, 17.06. 7:00 0.0 l/m2 in 1 Std. -
Mo, 17.06. 6:00 0.0 l/m2 in 1 Std. -
Mo, 17.06. 5:00 0.0 l/m2 in 1 Std. -
Mo, 17.06. 4:00 0.0 l/m2 in 1 Std. -
Ortszeit Stärke Spitze Richtung
km/h Bft. km/h Grad Sektor
Mo, 17.06. 8:00 14 3 - 270° W
Mo, 17.06. 2:00 14 3 - 260° W
So, 16.06. 20:00 14 3 - 260° W
So, 16.06. 14:00 11 2 - 50° NO
So, 16.06. 8:00 4 1 - - -
So, 16.06. 2:00 7 2 - - -
Sa, 15.06. 20:00 11 2 - 140° SO
Sa, 15.06. 14:00 7 2 - 130° SO
Ortszeit Stärke Spitze Richtung
km/h Bft. km/h Grad Sektor
Mo, 17.06. 10:00 4 1 - - -
Mo, 17.06. 9:00 4 1 - - -
Mo, 17.06. 8:00 14 3 - 270° W
Mo, 17.06. 7:00 18 3 - 270° W
Mo, 17.06. 6:00 11 2 - 270° W
Mo, 17.06. 5:00 14 3 - 290° W
Mo, 17.06. 4:00 14 3 - 270° W
Ortszeit Untergrenze Bedeckung Gattung
total tief tief mittel hoch
Mo, 17.06. 8:00 240 m 1/8 1/8 Cu - -
Mo, 17.06. 2:00 510 m 3/8 3/8 Sc - -
So, 16.06. 20:00 150 m 7/8 7/8 Sc - -
So, 16.06. 14:00 900 m 7/8 7/8 Cu - -
So, 16.06. 8:00 1500 m 7/8 3/8 Cu Ac Ci
So, 16.06. 2:00 3900 m 7/8 6/8 - As Ci
Sa, 15.06. 20:00 1800 m 1/8 1/8 Sc - Ci
Sa, 15.06. 14:00 1500 m 2/8 2/8 Cu - Ci
Ortszeit Bedeckungsgrad in Achtel und Wolkenuntergrenze
Mo, 17.06. 10:00 1(1380m)
Mo, 17.06. 9:00 1(600m)
Mo, 17.06. 8:00 1(240m)
Mo, 17.06. 7:00 2(60m)
Mo, 17.06. 6:00 1(60m) 4(210m)
Mo, 17.06. 5:00 7(300m)
Mo, 17.06. 4:00 2(300m)
Ortszeit Stationsdruck (hPa) Tendenz (hPa in 3 Std.)
Mo, 17.06. 8:00 936 + 1,2
Mo, 17.06. 2:00 934 + 0,7
So, 16.06. 20:00 932 + 0,6
So, 16.06. 14:00 932 - 0,3
So, 16.06. 8:00 932 - 0,6
So, 16.06. 2:00 932 - 0,4
Sa, 15.06. 20:00 932 + 0,3
Sa, 15.06. 14:00 932 - 1,1
Ortszeit Stationsdruck (hPa) Tendenz (hPa in 3 Std.)
Mo, 17.06. 10:00 937 keine Meldung
Mo, 17.06. 9:00 937 keine Meldung
Mo, 17.06. 8:00 936 + 1,2
Mo, 17.06. 7:00 936 keine Meldung
Mo, 17.06. 6:00 935 keine Meldung
Mo, 17.06. 5:00 935 + 0,9
Mo, 17.06. 4:00 935 keine Meldung
Ortszeit Schneehöhe (cm)
Mo, 17.06. 8:00 0
Mo, 17.06. 2:00 -
So, 16.06. 20:00 -
So, 16.06. 14:00 -
So, 16.06. 8:00 0
So, 16.06. 2:00 -
Sa, 15.06. 20:00 -
Sa, 15.06. 14:00 -
Ortszeit Schneehöhe (cm)
Mo, 17.06. 10:00 -
Mo, 17.06. 9:00 -
Mo, 17.06. 8:00 0
Mo, 17.06. 7:00 -
Mo, 17.06. 6:00 -
Mo, 17.06. 5:00 -
Mo, 17.06. 4:00 -
Link zu dieser Seite / Seite empfehlen

Das Wetter in ...